sensor_id;sensor_type;location;lat;lon;timestamp;temperature;humidity
14934;DHT22;7560;51.364;12.384;2023-04-25T00:02:08;9.80;99.90
14934;DHT22;7560;51.364;12.384;2023-04-25T00:07:10;9.80;99.90
14934;DHT22;7560;51.364;12.384;2023-04-25T00:12:12;9.80;99.90
14934;DHT22;7560;51.364;12.384;2023-04-25T00:17:14;9.80;99.90
14934;DHT22;7560;51.364;12.384;2023-04-25T00:22:16;9.90;99.90
14934;DHT22;7560;51.364;12.384;2023-04-25T00:27:18;9.80;99.90
14934;DHT22;7560;51.364;12.384;2023-04-25T00:32:21;9.70;99.90
14934;DHT22;7560;51.364;12.384;2023-04-25T00:37:22;9.40;99.90
14934;DHT22;7560;51.364;12.384;2023-04-25T00:42:25;9.20;99.90
14934;DHT22;7560;51.364;12.384;2023-04-25T00:47:28;9.00;99.90
14934;DHT22;7560;51.364;12.384;2023-04-25T00:52:30;8.90;99.90
14934;DHT22;7560;51.364;12.384;2023-04-25T00:57:32;8.80;99.90
14934;DHT22;7560;51.364;12.384;2023-04-25T01:02:33;8.70;99.90
14934;DHT22;7560;51.364;12.384;2023-04-25T01:07:37;8.60;99.90
14934;DHT22;7560;51.364;12.384;2023-04-25T01:12:39;8.50;99.90
14934;DHT22;7560;51.364;12.384;2023-04-25T01:17:41;8.40;99.90
14934;DHT22;7560;51.364;12.384;2023-04-25T01:22:44;8.30;99.90
14934;DHT22;7560;51.364;12.384;2023-04-25T01:27:47;8.30;99.90
14934;DHT22;7560;51.364;12.384;2023-04-25T01:32:49;8.10;99.90
14934;DHT22;7560;51.364;12.384;2023-04-25T01:37:51;8.00;99.90
14934;DHT22;7560;51.364;12.384;2023-04-25T01:42:54;8.00;99.90
14934;DHT22;7560;51.364;12.384;2023-04-25T01:47:56;7.90;99.90
14934;DHT22;7560;51.364;12.384;2023-04-25T01:53:00;7.70;99.90
14934;DHT22;7560;51.364;12.384;2023-04-25T01:58:03;7.70;99.90
14934;DHT22;7560;51.364;12.384;2023-04-25T02:03:10;7.70;99.90
14934;DHT22;7560;51.364;12.384;2023-04-25T02:08:12;7.60;99.90
14934;DHT22;7560;51.364;12.384;2023-04-25T02:13:14;7.60;99.90
14934;DHT22;7560;51.364;12.384;2023-04-25T02:18:16;7.50;99.90
14934;DHT22;7560;51.364;12.384;2023-04-25T02:23:19;7.50;99.90
14934;DHT22;7560;51.364;12.384;2023-04-25T02:28:21;7.40;99.90
14934;DHT22;7560;51.364;12.384;2023-04-25T02:33:22;7.40;99.90
14934;DHT22;7560;51.364;12.384;2023-04-25T02:38:24;7.30;99.90
14934;DHT22;7560;51.364;12.384;2023-04-25T02:43:27;7.30;99.90
14934;DHT22;7560;51.364;12.384;2023-04-25T02:48:28;7.30;99.90
14934;DHT22;7560;51.364;12.384;2023-04-25T02:53:30;7.20;99.90
14934;DHT22;7560;51.364;12.384;2023-04-25T02:58:32;7.20;99.90
14934;DHT22;7560;51.364;12.384;2023-04-25T03:03:34;7.10;99.90
14934;DHT22;7560;51.364;12.384;2023-04-25T03:08:36;7.10;99.90
14934;DHT22;7560;51.364;12.384;2023-04-25T03:13:37;7.10;99.90
14934;DHT22;7560;51.364;12.384;2023-04-25T03:18:40;7.00;99.90
14934;DHT22;7560;51.364;12.384;2023-04-25T03:23:41;6.90;99.90
14934;DHT22;7560;51.364;12.384;2023-04-25T03:28:43;6.90;99.90
14934;DHT22;7560;51.364;12.384;2023-04-25T03:33:45;6.90;99.90
14934;DHT22;7560;51.364;12.384;2023-04-25T03:38:47;6.80;99.90
14934;DHT22;7560;51.364;12.384;2023-04-25T03:43:49;6.80;99.90
14934;DHT22;7560;51.364;12.384;2023-04-25T03:48:51;6.80;99.90
14934;DHT22;7560;51.364;12.384;2023-04-25T03:53:53;6.70;99.90
14934;DHT22;7560;51.364;12.384;2023-04-25T03:58:57;6.80;99.90
14934;DHT22;7560;51.364;12.384;2023-04-25T04:03:58;6.80;99.90
14934;DHT22;7560;51.364;12.384;2023-04-25T04:09:01;6.80;99.90
14934;DHT22;7560;51.364;12.384;2023-04-25T04:14:03;6.80;99.90
14934;DHT22;7560;51.364;12.384;2023-04-25T04:19:04;6.80;99.90
14934;DHT22;7560;51.364;12.384;2023-04-25T04:24:06;6.80;99.90
14934;DHT22;7560;51.364;12.384;2023-04-25T04:29:08;6.80;99.90
14934;DHT22;7560;51.364;12.384;2023-04-25T04:34:10;6.80;99.90
14934;DHT22;7560;51.364;12.384;2023-04-25T04:39:12;6.90;99.90
14934;DHT22;7560;51.364;12.384;2023-04-25T04:44:14;6.90;99.90
14934;DHT22;7560;51.364;12.384;2023-04-25T04:49:16;6.90;99.90
14934;DHT22;7560;51.364;12.384;2023-04-25T04:54:18;7.00;99.90
14934;DHT22;7560;51.364;12.384;2023-04-25T04:59:20;7.00;99.90
14934;DHT22;7560;51.364;12.384;2023-04-25T05:04:24;7.10;99.90
14934;DHT22;7560;51.364;12.384;2023-04-25T05:09:27;7.20;99.90
14934;DHT22;7560;51.364;12.384;2023-04-25T05:14:29;7.20;99.90
14934;DHT22;7560;51.364;12.384;2023-04-25T05:19:32;7.20;99.90
14934;DHT22;7560;51.364;12.384;2023-04-25T05:24:34;7.30;99.90
14934;DHT22;7560;51.364;12.384;2023-04-25T05:29:36;7.40;99.90
14934;DHT22;7560;51.364;12.384;2023-04-25T05:34:38;7.40;99.90
14934;DHT22;7560;51.364;12.384;2023-04-25T05:39:40;7.50;99.90
14934;DHT22;7560;51.364;12.384;2023-04-25T05:44:42;7.60;99.90
14934;DHT22;7560;51.364;12.384;2023-04-25T05:49:44;7.70;99.90
14934;DHT22;7560;51.364;12.384;2023-04-25T05:54:46;7.70;99.90
14934;DHT22;7560;51.364;12.384;2023-04-25T05:59:47;7.80;99.90
14934;DHT22;7560;51.364;12.384;2023-04-25T06:04:50;7.90;99.90
14934;DHT22;7560;51.364;12.384;2023-04-25T06:09:52;8.00;99.90
14934;DHT22;7560;51.364;12.384;2023-04-25T06:14:54;8.10;99.90
14934;DHT22;7560;51.364;12.384;2023-04-25T06:19:56;8.20;99.90
14934;DHT22;7560;51.364;12.384;2023-04-25T06:24:58;8.50;99.90
14934;DHT22;7560;51.364;12.384;2023-04-25T06:30:01;8.60;99.90
14934;DHT22;7560;51.364;12.384;2023-04-25T06:35:03;8.70;99.90
14934;DHT22;7560;51.364;12.384;2023-04-25T06:40:06;9.00;99.90
14934;DHT22;7560;51.364;12.384;2023-04-25T06:45:08;9.50;99.90
14934;DHT22;7560;51.364;12.384;2023-04-25T06:50:10;9.90;99.90
14934;DHT22;7560;51.364;12.384;2023-04-25T06:55:12;10.10;99.90
14934;DHT22;7560;51.364;12.384;2023-04-25T07:00:14;10.40;99.90
14934;DHT22;7560;51.364;12.384;2023-04-25T07:05:16;10.40;99.90
14934;DHT22;7560;51.364;12.384;2023-04-25T07:10:20;10.30;99.90
14934;DHT22;7560;51.364;12.384;2023-04-25T07:15:22;10.00;99.90
14934;DHT22;7560;51.364;12.384;2023-04-25T07:20:24;10.10;99.90
14934;DHT22;7560;51.364;12.384;2023-04-25T07:25:26;10.40;99.90
14934;DHT22;7560;51.364;12.384;2023-04-25T07:30:28;10.50;99.90
14934;DHT22;7560;51.364;12.384;2023-04-25T07:35:31;10.50;99.90
14934;DHT22;7560;51.364;12.384;2023-04-25T07:40:33;10.80;99.90
14934;DHT22;7560;51.364;12.384;2023-04-25T07:45:36;10.30;99.90
14934;DHT22;7560;51.364;12.384;2023-04-25T07:50:38;10.20;99.90
14934;DHT22;7560;51.364;12.384;2023-04-25T07:55:41;9.90;99.90
14934;DHT22;7560;51.364;12.384;2023-04-25T08:00:43;9.50;99.90
14934;DHT22;7560;51.364;12.384;2023-04-25T08:05:45;9.40;99.90
14934;DHT22;7560;51.364;12.384;2023-04-25T08:10:47;9.30;99.90
14934;DHT22;7560;51.364;12.384;2023-04-25T08:15:49;9.60;99.90
14934;DHT22;7560;51.364;12.384;2023-04-25T08:20:51;10.10;99.90
14934;DHT22;7560;51.364;12.384;2023-04-25T08:25:53;10.20;99.90
14934;DHT22;7560;51.364;12.384;2023-04-25T08:30:55;10.90;99.90
14934;DHT22;7560;51.364;12.384;2023-04-25T08:35:57;10.30;99.90
14934;DHT22;7560;51.364;12.384;2023-04-25T08:41:00;10.20;99.90
14934;DHT22;7560;51.364;12.384;2023-04-25T08:46:02;9.90;99.90
14934;DHT22;7560;51.364;12.384;2023-04-25T08:51:07;9.80;99.90
14934;DHT22;7560;51.364;12.384;2023-04-25T08:56:17;10.40;99.90
14934;DHT22;7560;51.364;12.384;2023-04-25T09:01:19;10.30;99.90
14934;DHT22;7560;51.364;12.384;2023-04-25T09:06:22;10.30;99.90
14934;DHT22;7560;51.364;12.384;2023-04-25T09:11:25;10.50;99.90
14934;DHT22;7560;51.364;12.384;2023-04-25T09:16:28;10.90;99.90
14934;DHT22;7560;51.364;12.384;2023-04-25T09:21:30;10.50;99.90
14934;DHT22;7560;51.364;12.384;2023-04-25T09:26:32;10.70;99.90
14934;DHT22;7560;51.364;12.384;2023-04-25T09:31:34;11.70;99.90
14934;DHT22;7560;51.364;12.384;2023-04-25T09:36:36;12.10;99.90
14934;DHT22;7560;51.364;12.384;2023-04-25T09:41:38;10.80;99.90
14934;DHT22;7560;51.364;12.384;2023-04-25T09:46:40;10.90;99.90
14934;DHT22;7560;51.364;12.384;2023-04-25T09:51:56;10.30;99.90
14934;DHT22;7560;51.364;12.384;2023-04-25T09:57:08;9.80;99.90
14934;DHT22;7560;51.364;12.384;2023-04-25T10:02:14;10.30;99.90
14934;DHT22;7560;51.364;12.384;2023-04-25T10:07:16;10.00;99.90
14934;DHT22;7560;51.364;12.384;2023-04-25T10:12:19;9.90;99.90
14934;DHT22;7560;51.364;12.384;2023-04-25T10:17:21;10.00;99.90
14934;DHT22;7560;51.364;12.384;2023-04-25T10:22:31;10.30;99.90
14934;DHT22;7560;51.364;12.384;2023-04-25T10:27:34;10.80;99.90
14934;DHT22;7560;51.364;12.384;2023-04-25T10:32:37;10.70;99.90
14934;DHT22;7560;51.364;12.384;2023-04-25T10:37:55;11.10;99.90
14934;DHT22;7560;51.364;12.384;2023-04-25T10:48:46;10.60;99.90
14934;DHT22;7560;51.364;12.384;2023-04-25T10:53:59;10.70;99.90
14934;DHT22;7560;51.364;12.384;2023-04-25T10:59:09;10.50;99.90
14934;DHT22;7560;51.364;12.384;2023-04-25T11:04:21;10.70;99.90
14934;DHT22;7560;51.364;12.384;2023-04-25T11:09:24;11.10;99.90
14934;DHT22;7560;51.364;12.384;2023-04-25T11:14:26;10.90;99.90
14934;DHT22;7560;51.364;12.384;2023-04-25T11:19:29;10.90;99.90
14934;DHT22;7560;51.364;12.384;2023-04-25T11:24:33;10.20;99.90
14934;DHT22;7560;51.364;12.384;2023-04-25T11:29:36;9.90;99.90
14934;DHT22;7560;51.364;12.384;2023-04-25T11:34:39;10.00;99.90
14934;DHT22;7560;51.364;12.384;2023-04-25T11:39:44;10.10;99.90
14934;DHT22;7560;51.364;12.384;2023-04-25T11:44:48;10.60;99.90
14934;DHT22;7560;51.364;12.384;2023-04-25T11:49:53;10.50;99.90
14934;DHT22;7560;51.364;12.384;2023-04-25T11:54:56;11.10;99.90
14934;DHT22;7560;51.364;12.384;2023-04-25T12:00:12;11.30;99.90
14934;DHT22;7560;51.364;12.384;2023-04-25T12:05:19;11.20;99.90
14934;DHT22;7560;51.364;12.384;2023-04-25T12:10:40;11.00;99.90
14934;DHT22;7560;51.364;12.384;2023-04-25T12:15:42;11.50;99.90
14934;DHT22;7560;51.364;12.384;2023-04-25T12:20:44;11.40;99.90
14934;DHT22;7560;51.364;12.384;2023-04-25T12:25:46;12.30;99.90
14934;DHT22;7560;51.364;12.384;2023-04-25T12:31:05;11.90;99.90
14934;DHT22;7560;51.364;12.384;2023-04-25T12:36:08;11.70;99.90
14934;DHT22;7560;51.364;12.384;2023-04-25T12:41:10;11.20;99.90
14934;DHT22;7560;51.364;12.384;2023-04-25T12:46:12;10.70;99.90
14934;DHT22;7560;51.364;12.384;2023-04-25T12:51:14;11.00;99.90
14934;DHT22;7560;51.364;12.384;2023-04-25T12:56:16;10.80;99.90
14934;DHT22;7560;51.364;12.384;2023-04-25T13:01:18;11.00;99.90
14934;DHT22;7560;51.364;12.384;2023-04-25T13:06:21;10.80;99.90
14934;DHT22;7560;51.364;12.384;2023-04-25T13:11:23;10.80;99.90
14934;DHT22;7560;51.364;12.384;2023-04-25T13:16:25;10.50;99.90
14934;DHT22;7560;51.364;12.384;2023-04-25T13:21:30;10.40;99.90
14934;DHT22;7560;51.364;12.384;2023-04-25T13:26:33;10.50;99.90
14934;DHT22;7560;51.364;12.384;2023-04-25T13:31:35;10.70;99.90
14934;DHT22;7560;51.364;12.384;2023-04-25T13:36:38;11.10;99.90
14934;DHT22;7560;51.364;12.384;2023-04-25T13:41:40;12.20;99.90
14934;DHT22;7560;51.364;12.384;2023-04-25T13:46:42;12.40;99.90
14934;DHT22;7560;51.364;12.384;2023-04-25T13:51:48;11.60;99.90
14934;DHT22;7560;51.364;12.384;2023-04-25T13:56:50;11.50;99.90
14934;DHT22;7560;51.364;12.384;2023-04-25T14:01:53;12.30;99.90
14934;DHT22;7560;51.364;12.384;2023-04-25T14:06:55;12.10;99.90
14934;DHT22;7560;51.364;12.384;2023-04-25T14:12:00;11.90;99.90
14934;DHT22;7560;51.364;12.384;2023-04-25T14:17:02;12.40;99.90
14934;DHT22;7560;51.364;12.384;2023-04-25T14:22:08;11.80;99.90
14934;DHT22;7560;51.364;12.384;2023-04-25T14:27:09;11.40;99.90
14934;DHT22;7560;51.364;12.384;2023-04-25T14:32:11;11.80;99.90
14934;DHT22;7560;51.364;12.384;2023-04-25T14:37:14;11.60;99.90
14934;DHT22;7560;51.364;12.384;2023-04-25T14:42:16;11.80;99.90
14934;DHT22;7560;51.364;12.384;2023-04-25T14:47:19;11.80;99.40
14934;DHT22;7560;51.364;12.384;2023-04-25T14:52:22;12.10;97.40
14934;DHT22;7560;51.364;12.384;2023-04-25T14:57:24;11.70;98.40
14934;DHT22;7560;51.364;12.384;2023-04-25T15:02:27;11.80;99.90
14934;DHT22;7560;51.364;12.384;2023-04-25T15:07:29;11.40;99.90
14934;DHT22;7560;51.364;12.384;2023-04-25T15:12:31;11.20;99.90
14934;DHT22;7560;51.364;12.384;2023-04-25T15:17:33;11.40;99.90
14934;DHT22;7560;51.364;12.384;2023-04-25T15:22:39;11.40;99.90
14934;DHT22;7560;51.364;12.384;2023-04-25T15:27:41;11.60;99.90
14934;DHT22;7560;51.364;12.384;2023-04-25T15:32:45;11.40;99.90
14934;DHT22;7560;51.364;12.384;2023-04-25T15:37:47;11.40;99.90
14934;DHT22;7560;51.364;12.384;2023-04-25T15:42:50;11.10;99.90
14934;DHT22;7560;51.364;12.384;2023-04-25T15:47:55;11.20;99.90
14934;DHT22;7560;51.364;12.384;2023-04-25T15:52:57;11.30;99.90
14934;DHT22;7560;51.364;12.384;2023-04-25T15:57:59;11.10;99.90
14934;DHT22;7560;51.364;12.384;2023-04-25T16:03:01;11.10;99.90
14934;DHT22;7560;51.364;12.384;2023-04-25T16:08:04;11.10;99.90
14934;DHT22;7560;51.364;12.384;2023-04-25T16:13:06;10.90;99.90
14934;DHT22;7560;51.364;12.384;2023-04-25T16:18:08;10.50;99.90
14934;DHT22;7560;51.364;12.384;2023-04-25T16:23:09;10.60;99.90
14934;DHT22;7560;51.364;12.384;2023-04-25T16:28:13;10.40;99.90
14934;DHT22;7560;51.364;12.384;2023-04-25T16:33:14;10.30;99.90
14934;DHT22;7560;51.364;12.384;2023-04-25T16:38:18;10.20;99.90
14934;DHT22;7560;51.364;12.384;2023-04-25T16:43:19;10.30;99.90
14934;DHT22;7560;51.364;12.384;2023-04-25T16:48:22;10.20;99.90
14934;DHT22;7560;51.364;12.384;2023-04-25T16:53:25;10.30;99.90
14934;DHT22;7560;51.364;12.384;2023-04-25T16:58:27;10.30;99.90
14934;DHT22;7560;51.364;12.384;2023-04-25T17:03:29;10.40;99.90
14934;DHT22;7560;51.364;12.384;2023-04-25T17:08:36;10.10;99.90
14934;DHT22;7560;51.364;12.384;2023-04-25T17:13:37;10.20;99.90
14934;DHT22;7560;51.364;12.384;2023-04-25T17:18:39;10.60;99.90
14934;DHT22;7560;51.364;12.384;2023-04-25T17:23:43;10.60;99.90
14934;DHT22;7560;51.364;12.384;2023-04-25T17:28:46;10.60;99.90
14934;DHT22;7560;51.364;12.384;2023-04-25T17:33:50;10.30;99.90
14934;DHT22;7560;51.364;12.384;2023-04-25T17:38:52;10.30;99.90
14934;DHT22;7560;51.364;12.384;2023-04-25T17:43:54;10.30;99.90
14934;DHT22;7560;51.364;12.384;2023-04-25T17:48:56;10.20;99.90
14934;DHT22;7560;51.364;12.384;2023-04-25T17:54:01;9.90;99.90
14934;DHT22;7560;51.364;12.384;2023-04-25T17:59:03;9.70;99.90
14934;DHT22;7560;51.364;12.384;2023-04-25T18:04:05;9.50;99.90
14934;DHT22;7560;51.364;12.384;2023-04-25T18:09:07;9.30;99.90
14934;DHT22;7560;51.364;12.384;2023-04-25T18:14:19;9.20;99.90
14934;DHT22;7560;51.364;12.384;2023-04-25T18:19:22;9.00;99.90
14934;DHT22;7560;51.364;12.384;2023-04-25T18:24:24;8.90;99.90
14934;DHT22;7560;51.364;12.384;2023-04-25T18:29:28;8.90;99.90
14934;DHT22;7560;51.364;12.384;2023-04-25T18:34:34;8.80;99.90
14934;DHT22;7560;51.364;12.384;2023-04-25T18:39:43;8.70;99.90
14934;DHT22;7560;51.364;12.384;2023-04-25T18:44:45;8.80;99.90
14934;DHT22;7560;51.364;12.384;2023-04-25T18:49:48;8.80;99.90
14934;DHT22;7560;51.364;12.384;2023-04-25T18:54:51;8.80;99.90
14934;DHT22;7560;51.364;12.384;2023-04-25T18:59:53;8.80;99.90
14934;DHT22;7560;51.364;12.384;2023-04-25T19:04:55;8.80;99.90
14934;DHT22;7560;51.364;12.384;2023-04-25T19:09:57;8.80;99.90
14934;DHT22;7560;51.364;12.384;2023-04-25T19:14:59;9.00;99.90
14934;DHT22;7560;51.364;12.384;2023-04-25T19:20:02;8.90;99.90
14934;DHT22;7560;51.364;12.384;2023-04-25T19:25:04;9.00;99.90
14934;DHT22;7560;51.364;12.384;2023-04-25T19:30:11;9.00;99.90
14934;DHT22;7560;51.364;12.384;2023-04-25T19:35:13;9.00;99.90
14934;DHT22;7560;51.364;12.384;2023-04-25T19:40:16;9.10;99.90
14934;DHT22;7560;51.364;12.384;2023-04-25T19:45:19;8.80;99.90
14934;DHT22;7560;51.364;12.384;2023-04-25T19:50:22;8.80;99.90
14934;DHT22;7560;51.364;12.384;2023-04-25T19:55:25;8.80;99.90
14934;DHT22;7560;51.364;12.384;2023-04-25T20:00:28;8.80;99.90
14934;DHT22;7560;51.364;12.384;2023-04-25T20:05:29;8.60;99.90
14934;DHT22;7560;51.364;12.384;2023-04-25T20:10:32;8.60;99.90
14934;DHT22;7560;51.364;12.384;2023-04-25T20:15:34;8.50;99.90
14934;DHT22;7560;51.364;12.384;2023-04-25T20:20:36;8.50;99.90
14934;DHT22;7560;51.364;12.384;2023-04-25T20:25:37;8.50;99.90
14934;DHT22;7560;51.364;12.384;2023-04-25T20:30:39;8.40;99.90
14934;DHT22;7560;51.364;12.384;2023-04-25T20:35:42;8.30;99.90
14934;DHT22;7560;51.364;12.384;2023-04-25T20:40:44;8.20;99.90
14934;DHT22;7560;51.364;12.384;2023-04-25T20:45:46;8.10;99.90
14934;DHT22;7560;51.364;12.384;2023-04-25T20:50:48;8.10;99.90
14934;DHT22;7560;51.364;12.384;2023-04-25T20:55:50;8.10;99.90
14934;DHT22;7560;51.364;12.384;2023-04-25T21:00:53;8.00;99.90
14934;DHT22;7560;51.364;12.384;2023-04-25T21:05:57;8.00;99.90
14934;DHT22;7560;51.364;12.384;2023-04-25T21:10:59;8.00;99.90
14934;DHT22;7560;51.364;12.384;2023-04-25T21:16:01;8.20;99.90
14934;DHT22;7560;51.364;12.384;2023-04-25T21:21:03;8.00;99.90
14934;DHT22;7560;51.364;12.384;2023-04-25T21:26:05;8.00;99.90
14934;DHT22;7560;51.364;12.384;2023-04-25T21:31:07;8.10;99.90
14934;DHT22;7560;51.364;12.384;2023-04-25T21:36:09;8.10;99.90
14934;DHT22;7560;51.364;12.384;2023-04-25T21:41:11;8.10;99.90
14934;DHT22;7560;51.364;12.384;2023-04-25T21:46:13;8.00;99.90
14934;DHT22;7560;51.364;12.384;2023-04-25T21:51:24;8.00;99.90
14934;DHT22;7560;51.364;12.384;2023-04-25T21:56:26;7.90;99.90
14934;DHT22;7560;51.364;12.384;2023-04-25T22:01:28;7.90;99.90
14934;DHT22;7560;51.364;12.384;2023-04-25T22:06:29;7.80;99.90
14934;DHT22;7560;51.364;12.384;2023-04-25T22:11:31;7.70;99.90
14934;DHT22;7560;51.364;12.384;2023-04-25T22:16:33;7.50;99.90
14934;DHT22;7560;51.364;12.384;2023-04-25T22:21:35;7.40;99.90
14934;DHT22;7560;51.364;12.384;2023-04-25T22:26:37;7.30;99.90
14934;DHT22;7560;51.364;12.384;2023-04-25T22:31:39;7.30;99.90
14934;DHT22;7560;51.364;12.384;2023-04-25T22:36:42;7.30;99.90
14934;DHT22;7560;51.364;12.384;2023-04-25T22:41:44;7.30;99.90
14934;DHT22;7560;51.364;12.384;2023-04-25T22:46:49;7.30;99.90
14934;DHT22;7560;51.364;12.384;2023-04-25T22:51:51;7.10;99.90
14934;DHT22;7560;51.364;12.384;2023-04-25T22:56:56;7.00;99.90
14934;DHT22;7560;51.364;12.384;2023-04-25T23:01:58;7.00;99.90
14934;DHT22;7560;51.364;12.384;2023-04-25T23:07:00;7.00;99.90
14934;DHT22;7560;51.364;12.384;2023-04-25T23:12:02;7.00;99.90
14934;DHT22;7560;51.364;12.384;2023-04-25T23:17:05;6.90;99.90
14934;DHT22;7560;51.364;12.384;2023-04-25T23:22:07;6.80;99.90
14934;DHT22;7560;51.364;12.384;2023-04-25T23:27:09;6.70;99.90
14934;DHT22;7560;51.364;12.384;2023-04-25T23:32:11;6.60;99.90
14934;DHT22;7560;51.364;12.384;2023-04-25T23:37:13;6.60;99.90
14934;DHT22;7560;51.364;12.384;2023-04-25T23:42:18;6.50;99.90
14934;DHT22;7560;51.364;12.384;2023-04-25T23:47:20;6.40;99.90
14934;DHT22;7560;51.364;12.384;2023-04-25T23:52:22;6.50;99.90
14934;DHT22;7560;51.364;12.384;2023-04-25T23:57:24;6.50;99.90
